NORTHERN NASSAU  -  Coastal Flood Statement Coastal Flood Statement     Rip Current Statement Rip Current Statement        SOUTHERN NASSAU  -  Coastal Flood Statement Coastal Flood Statement     Rip Current Statement Rip Current Statement        SOUTHERN QUEENS  -  Coastal Flood Statement Coastal Flood Statement     Rip Current Statement Rip Current Statement        NORTHEAST SUFFOLK  -  Rip Current Statement Rip Current Statement        NORTHWEST SUFFOLK  -  Rip Current Statement Rip Current Statement        SOUTHEAST SUFFOLK  -  Rip Current Statement Rip Current Statement        SOUTHWEST SUFFOLK  -  Rip Current Statement Rip Current Statement      

Active alerts

Southern Queens
  Details for Southern Queens Coastal Flood Statement  +1 additional alert
Northern Nassau
  Details for Northern Nassau Coastal Flood Statement  +1 additional alert
Southern Nassau
  Details for Southern Nassau Coastal Flood Statement  +1 additional alert
Northwest Suffolk
  Details for Northwest Suffolk Rip Current Statement
Southwest Suffolk
  Details for Southwest Suffolk Rip Current Statement
Northeast Suffolk
  Details for Northeast Suffolk Rip Current Statement
Southeast Suffolk
  Details for Southeast Suffolk Rip Current Statement


WXM80 ListenWXM80 Stop

You find our weather info also at:

UK Metoffice

WeatherCloud

Weather Underground

Northeastern Weather Network

AWEKAS

Citizen Weather Observer Program (CWOP)

HAMweather, WeatherForYou, PWS Weather


Weather Underground History page Text

Daily Summary for January 2, 2018 Units:  Both    English   Metric
« Previous Day
Next Day »
Daily Weekly Monthly Yearly Custom
  High: Low: Average:
Temperature: 26.7 °F /  -2.9 °C 15.4 °F /  -9.2 °C 19.9 °F /  -6.7 °C
Dew Point: 12.6 °F /  -10.8 °C 5.8 °F /  -14.6 °C 9.2 °F /  -12.7 °C
Humidity: 69 % 53 % 63 %
Wind Speed: 13.0 mph /  20.9 km/h - 5.2 mph /  8.4 km/h
Wind Gust: 22.0 mph /  35.4 km/h - -
Wind:- - WSW
Pressure: 30.41 in /  1029.7 hPa 30.29 in /  1025.6 hPa -
Precipitation: 0.00 in /  0 mm    
Historical Graphs
 
 
Tabular Data for January 2, 2018
Time Temperature Dew Point Pressure Wind Wind Speed Wind Gust Humidity Rainfall Rate (Hourly)
00:01 17.5 °F /  -8.1 °C 6.7 °F /  -14.1 °C 30.32 in /  1026.6 hPa NW 7.3 mph /  11.7 km/h 15.0 mph /  24.1 km/h 62 % 0.00 in /  0 mm
00:05 17.5 °F /  -8.1 °C 7.0 °F /  -13.9 °C 30.32 in /  1026.6 hPa West 6.5 mph /  10.5 km/h 11.5 mph /  18.5 km/h 63 % 0.00 in /  0 mm
00:10 17.4 °F /  -8.1 °C 6.9 °F /  -13.9 °C 30.32 in /  1026.6 hPa WNW 7.3 mph /  11.7 km/h 17.3 mph /  27.8 km/h 63 % 0.00 in /  0 mm
00:12 17.3 °F /  -8.2 °C 6.8 °F /  -14 °C 30.32 in /  1026.6 hPa WSW 6.4 mph /  10.3 km/h 17.3 mph /  27.8 km/h 63 % 0.00 in /  0 mm
00:17 17.3 °F /  -8.2 °C 6.8 °F /  -14 °C 30.32 in /  1026.6 hPa WSW 7.1 mph /  11.4 km/h 11.5 mph /  18.5 km/h 63 % 0.00 in /  0 mm
00:18 17.3 °F /  -8.2 °C 6.8 °F /  -14 °C 30.32 in /  1026.6 hPa WSW 4.8 mph /  7.7 km/h 15.0 mph /  24.1 km/h 63 % 0.00 in /  0 mm
00:23 17.2 °F /  -8.2 °C 7.1 °F /  -13.8 °C 30.32 in /  1026.6 hPa WSW 7.9 mph /  12.7 km/h 10.4 mph /  16.7 km/h 64 % 0.00 in /  0 mm
00:28 17.2 °F /  -8.2 °C 7.1 °F /  -13.8 °C 30.32 in /  1026.6 hPa WSW 5.5 mph /  8.9 km/h 15.0 mph /  24.1 km/h 64 % 0.00 in /  0 mm
00:30 17.2 °F /  -8.2 °C 7.1 °F /  -13.8 °C 30.32 in /  1026.6 hPa NW 9.6 mph /  15.4 km/h 15.0 mph /  24.1 km/h 64 % 0.00 in /  0 mm
00:32 17.1 °F /  -8.3 °C 7.0 °F /  -13.9 °C 30.32 in /  1026.6 hPa West 10.1 mph /  16.3 km/h 18.0 mph /  29 km/h 64 % 0.00 in /  0 mm
00:41 17.1 °F /  -8.3 °C 7.0 °F /  -13.9 °C 30.31 in /  1026.3 hPa West 8.0 mph /  12.9 km/h 13.8 mph /  22.2 km/h 64 % 0.00 in /  0 mm
00:42 17.1 °F /  -8.3 °C 7.0 °F /  -13.9 °C 30.31 in /  1026.3 hPa NNW 1.7 mph /  2.7 km/h 8.0 mph /  12.9 km/h 64 % 0.00 in /  0 mm
00:48 17.1 °F /  -8.3 °C 7.0 °F /  -13.9 °C 30.31 in /  1026.3 hPa WNW 7.3 mph /  11.7 km/h 12.0 mph /  19.3 km/h 64 % 0.00 in /  0 mm
00:53 17.1 °F /  -8.3 °C 7.3 °F /  -13.7 °C 30.31 in /  1026.3 hPa WSW 10.7 mph /  17.2 km/h 19.6 mph /  31.5 km/h 65 % 0.00 in /  0 mm
00:58 17.1 °F /  -8.3 °C 7.0 °F /  -13.9 °C 30.32 in /  1026.6 hPa WSW 5.3 mph /  8.5 km/h 16.0 mph /  25.7 km/h 64 % 0.00 in /  0 mm
01:03 17.0 °F /  -8.3 °C 6.9 °F /  -13.9 °C 30.32 in /  1026.6 hPa West 4.7 mph /  7.6 km/h 21.0 mph /  33.8 km/h 64 % 0.00 in /  0 mm
01:05 17.0 °F /  -8.3 °C 6.9 °F /  -13.9 °C 30.32 in /  1026.6 hPa WSW 4.9 mph /  7.9 km/h 15.0 mph /  24.1 km/h 64 % 0.00 in /  0 mm
01:09 17.0 °F /  -8.3 °C 7.3 °F /  -13.7 °C 30.32 in /  1026.6 hPa WSW 6.0 mph /  9.7 km/h 10.4 mph /  16.7 km/h 65 % 0.00 in /  0 mm
01:11 17.0 °F /  -8.3 °C 7.3 °F /  -13.7 °C 30.31 in /  1026.3 hPa WSW 7.6 mph /  12.2 km/h 13.8 mph /  22.2 km/h 65 % 0.00 in /  0 mm
01:16 17.0 °F /  -8.3 °C 7.3 °F /  -13.7 °C 30.32 in /  1026.6 hPa NW 5.8 mph /  9.3 km/h 12.7 mph /  20.4 km/h 65 % 0.00 in /  0 mm
01:17 16.9 °F /  -8.4 °C 7.2 °F /  -13.8 °C 30.32 in /  1026.6 hPa West 6.7 mph /  10.8 km/h 10.4 mph /  16.7 km/h 65 % 0.00 in /  0 mm
01:22 16.9 °F /  -8.4 °C 7.2 °F /  -13.8 °C 30.32 in /  1026.6 hPa WNW 13.0 mph /  20.9 km/h 19.6 mph /  31.5 km/h 65 % 0.00 in /  0 mm
01:24 16.9 °F /  -8.4 °C 7.2 °F /  -13.8 °C 30.32 in /  1026.6 hPa WNW 7.7 mph /  12.4 km/h 18.4 mph /  29.6 km/h 65 % 0.00 in /  0 mm
01:25 16.9 °F /  -8.4 °C 7.2 °F /  -13.8 °C 30.32 in /  1026.6 hPa WSW 7.3 mph /  11.7 km/h 11.5 mph /  18.5 km/h 65 % 0.00 in /  0 mm
01:30 16.9 °F /  -8.4 °C 7.2 °F /  -13.8 °C 30.32 in /  1026.6 hPa WSW 10.1 mph /  16.3 km/h 20.7 mph /  33.3 km/h 65 % 0.00 in /  0 mm
01:35 16.8 °F /  -8.4 °C 7.1 °F /  -13.8 °C 30.32 in /  1026.6 hPa WNW 9.5 mph /  15.3 km/h 22.0 mph /  35.4 km/h 65 % 0.00 in /  0 mm
01:36 16.8 °F /  -8.4 °C 7.1 °F /  -13.8 °C 30.32 in /  1026.6 hPa SW 8.3 mph /  13.4 km/h 21.9 mph /  35.2 km/h 65 % 0.00 in /  0 mm
01:41 16.8 °F /  -8.4 °C 7.1 °F /  -13.8 °C 30.32 in /  1026.6 hPa WSW 8.6 mph /  13.8 km/h 14.0 mph /  22.5 km/h 65 % 0.00 in /  0 mm
01:49 16.7 °F /  -8.5 °C 7.0 °F /  -13.9 °C 30.32 in /  1026.6 hPa WSW 5.7 mph /  9.2 km/h 10.4 mph /  16.7 km/h 65 % 0.00 in /  0 mm
01:54 16.7 °F /  -8.5 °C 7.0 °F /  -13.9 °C 30.32 in /  1026.6 hPa WSW 5.0 mph /  8 km/h 7.0 mph /  11.3 km/h 65 % 0.00 in /  0 mm
01:58 16.7 °F /  -8.5 °C 7.0 °F /  -13.9 °C 30.32 in /  1026.6 hPa WNW 6.6 mph /  10.6 km/h 10.4 mph /  16.7 km/h 65 % 0.00 in /  0 mm
02:00 16.7 °F /  -8.5 °C 7.0 °F /  -13.9 °C 30.32 in /  1026.6 hPa NW 7.5 mph /  12.1 km/h 12.0 mph /  19.3 km/h 65 % 0.00 in /  0 mm
02:05 16.6 °F /  -8.6 °C 7.2 °F /  -13.8 °C 30.32 in /  1026.6 hPa NW 7.1 mph /  11.4 km/h 11.5 mph /  18.5 km/h 66 % 0.00 in /  0 mm
02:10 16.6 °F /  -8.6 °C 6.9 °F /  -13.9 °C 30.33 in /  1027 hPa NNW 5.2 mph /  8.4 km/h 11.5 mph /  18.5 km/h 65 % 0.00 in /  0 mm
02:11 16.6 °F /  -8.6 °C 6.9 °F /  -13.9 °C 30.32 in /  1026.6 hPa SSW 8.0 mph /  12.9 km/h 15.0 mph /  24.1 km/h 65 % 0.00 in /  0 mm
02:16 16.6 °F /  -8.6 °C 7.2 °F /  -13.8 °C 30.33 in /  1027 hPa SW 6.3 mph /  10.1 km/h 15.0 mph /  24.1 km/h 66 % 0.00 in /  0 mm
02:17 16.6 °F /  -8.6 °C 7.2 °F /  -13.8 °C 30.33 in /  1027 hPa WNW 7.5 mph /  12.1 km/h 8.0 mph /  12.9 km/h 66 % 0.00 in /  0 mm
02:22 16.6 °F /  -8.6 °C 7.2 °F /  -13.8 °C 30.33 in /  1027 hPa WSW 9.9 mph /  15.9 km/h 20.7 mph /  33.3 km/h 66 % 0.00 in /  0 mm
02:25 16.6 °F /  -8.6 °C 7.2 °F /  -13.8 °C 30.33 in /  1027 hPa South 5.7 mph /  9.2 km/h 11.5 mph /  18.5 km/h 66 % 0.00 in /  0 mm
02:29 16.6 °F /  -8.6 °C 7.2 °F /  -13.8 °C 30.33 in /  1027 hPa West 7.4 mph /  11.9 km/h 15.0 mph /  24.1 km/h 66 % 0.00 in /  0 mm
02:34 16.7 °F /  -8.5 °C 7.6 °F /  -13.6 °C 30.33 in /  1027 hPa WSW 8.9 mph /  14.3 km/h 16.1 mph /  25.9 km/h 67 % 0.00 in /  0 mm
02:38 16.7 °F /  -8.5 °C 7.3 °F /  -13.7 °C 30.33 in /  1027 hPa WNW 10.0 mph /  16.1 km/h 15.0 mph /  24.1 km/h 66 % 0.00 in /  0 mm
02:43 16.7 °F /  -8.5 °C 7.3 °F /  -13.7 °C 30.33 in /  1027 hPa WNW 7.1 mph /  11.4 km/h 19.6 mph /  31.5 km/h 66 % 0.00 in /  0 mm
02:44 16.7 °F /  -8.5 °C 7.3 °F /  -13.7 °C 30.33 in /  1027 hPa WNW 8.5 mph /  13.7 km/h 15.0 mph /  24.1 km/h 66 % 0.00 in /  0 mm
02:49 16.7 °F /  -8.5 °C 7.3 °F /  -13.7 °C 30.33 in /  1027 hPa WNW 10.3 mph /  16.6 km/h 21.9 mph /  35.2 km/h 66 % 0.00 in /  0 mm
02:50 16.7 °F /  -8.5 °C 7.3 °F /  -13.7 °C 30.33 in /  1027 hPa WSW 8.9 mph /  14.3 km/h 18.4 mph /  29.6 km/h 66 % 0.00 in /  0 mm
02:55 16.7 °F /  -8.5 °C 7.3 °F /  -13.7 °C 30.34 in /  1027.3 hPa West 4.5 mph /  7.2 km/h 11.5 mph /  18.5 km/h 66 % 0.00 in /  0 mm
02:57 16.7 °F /  -8.5 °C 7.3 °F /  -13.7 °C 30.33 in /  1027 hPa WSW 7.7 mph /  12.4 km/h 17.3 mph /  27.8 km/h 66 % 0.00 in /  0 mm
03:02 16.7 °F /  -8.5 °C 7.3 °F /  -13.7 °C 30.34 in /  1027.3 hPa WNW 8.6 mph /  13.8 km/h 18.4 mph /  29.6 km/h 66 % 0.00 in /  0 mm
03:04 16.7 °F /  -8.5 °C 7.3 °F /  -13.7 °C 30.34 in /  1027.3 hPa NW 11.1 mph /  17.9 km/h 21.9 mph /  35.2 km/h 66 % 0.00 in /  0 mm
03:09 16.7 °F /  -8.5 °C 7.0 °F /  -13.9 °C 30.34 in /  1027.3 hPa SSE 3.5 mph /  5.6 km/h 11.5 mph /  18.5 km/h 65 % 0.00 in /  0 mm
03:14 16.6 °F /  -8.6 °C 6.5 °F /  -14.2 °C 30.34 in /  1027.3 hPa NW 4.6 mph /  7.4 km/h 11.5 mph /  18.5 km/h 64 % 0.00 in /  0 mm
03:16 16.6 °F /  -8.6 °C 6.9 °F /  -13.9 °C 30.34 in /  1027.3 hPa WSW 3.7 mph /  6 km/h 10.4 mph /  16.7 km/h 65 % 0.00 in /  0 mm
03:20 16.6 °F /  -8.6 °C 7.2 °F /  -13.8 °C 30.34 in /  1027.3 hPa NNW 6.1 mph /  9.8 km/h 12.7 mph /  20.4 km/h 66 % 0.00 in /  0 mm
03:25 16.5 °F /  -8.6 °C 6.8 °F /  -14 °C 30.34 in /  1027.3 hPa West 3.5 mph /  5.6 km/h 11.5 mph /  18.5 km/h 65 % 0.00 in /  0 mm
03:26 16.5 °F /  -8.6 °C 6.8 °F /  -14 °C 30.34 in /  1027.3 hPa West 5.9 mph /  9.5 km/h 11.5 mph /  18.5 km/h 65 % 0.00 in /  0 mm
03:28 16.5 °F /  -8.6 °C 7.1 °F /  -13.8 °C 30.34 in /  1027.3 hPa West 10.2 mph /  16.4 km/h 19.6 mph /  31.5 km/h 66 % 0.00 in /  0 mm
03:33 16.4 °F /  -8.7 °C 6.3 °F /  -14.3 °C 30.34 in /  1027.3 hPa NW 9.8 mph /  15.8 km/h 17.3 mph /  27.8 km/h 64 % 0.00 in /  0 mm
03:34 16.4 °F /  -8.7 °C 6.3 °F /  -14.3 °C 30.34 in /  1027.3 hPa NW 8.1 mph /  13 km/h 17.3 mph /  27.8 km/h 64 % 0.00 in /  0 mm
03:39 16.4 °F /  -8.7 °C 6.3 °F /  -14.3 °C 30.34 in /  1027.3 hPa WSW 5.8 mph /  9.3 km/h 11.5 mph /  18.5 km/h 64 % 0.00 in /  0 mm
03:42 16.4 °F /  -8.7 °C 6.7 °F /  -14.1 °C 30.34 in /  1027.3 hPa WSW 7.3 mph /  11.7 km/h 19.6 mph /  31.5 km/h 65 % 0.00 in /  0 mm
03:43 16.3 °F /  -8.7 °C 6.6 °F /  -14.1 °C 30.34 in /  1027.3 hPa NW 6.4 mph /  10.3 km/h 19.6 mph /  31.5 km/h 65 % 0.00 in /  0 mm
03:48 16.3 °F /  -8.7 °C 6.6 °F /  -14.1 °C 30.34 in /  1027.3 hPa WNW 5.6 mph /  9 km/h 11.5 mph /  18.5 km/h 65 % 0.00 in /  0 mm
03:53 16.3 °F /  -8.7 °C 6.6 °F /  -14.1 °C 30.34 in /  1027.3 hPa WNW 7.1 mph /  11.4 km/h 12.0 mph /  19.3 km/h 65 % 0.00 in /  0 mm
03:58 16.2 °F /  -8.8 °C 6.1 °F /  -14.4 °C 30.33 in /  1027 hPa WNW 6.1 mph /  9.8 km/h 12.7 mph /  20.4 km/h 64 % 0.00 in /  0 mm
04:06 16.2 °F /  -8.8 °C 6.5 °F /  -14.2 °C 30.34 in /  1027.3 hPa West 6.4 mph /  10.3 km/h 13.8 mph /  22.2 km/h 65 % 0.00 in /  0 mm
04:08 16.3 °F /  -8.7 °C 6.6 °F /  -14.1 °C 30.33 in /  1027 hPa West 5.8 mph /  9.3 km/h 16.1 mph /  25.9 km/h 65 % 0.00 in /  0 mm
04:13 16.3 °F /  -8.7 °C 6.6 °F /  -14.1 °C 30.33 in /  1027 hPa NW 7.9 mph /  12.7 km/h 13.8 mph /  22.2 km/h 65 % 0.00 in /  0 mm
04:16 16.3 °F /  -8.7 °C 6.6 °F /  -14.1 °C 30.33 in /  1027 hPa WSW 11.8 mph /  19 km/h 19.6 mph /  31.5 km/h 65 % 0.00 in /  0 mm
04:19 16.3 °F /  -8.7 °C 6.6 °F /  -14.1 °C 30.33 in /  1027 hPa SW 6.9 mph /  11.1 km/h 15.0 mph /  24.1 km/h 65 % 0.00 in /  0 mm
04:22 16.3 °F /  -8.7 °C 6.6 °F /  -14.1 °C 30.34 in /  1027.3 hPa NNW 6.0 mph /  9.7 km/h 13.8 mph /  22.2 km/h 65 % 0.00 in /  0 mm
04:27 16.3 °F /  -8.7 °C 6.2 °F /  -14.3 °C 30.33 in /  1027 hPa West 10.2 mph /  16.4 km/h 16.1 mph /  25.9 km/h 64 % 0.00 in /  0 mm
04:28 16.3 °F /  -8.7 °C 6.2 °F /  -14.3 °C 30.33 in /  1027 hPa WSW 7.7 mph /  12.4 km/h 18.4 mph /  29.6 km/h 64 % 0.00 in /  0 mm
04:33 16.3 °F /  -8.7 °C 5.9 °F /  -14.5 °C 30.34 in /  1027.3 hPa WNW 9.2 mph /  14.8 km/h 16.1 mph /  25.9 km/h 63 % 0.00 in /  0 mm
04:36 16.3 °F /  -8.7 °C 6.2 °F /  -14.3 °C 30.34 in /  1027.3 hPa NW 6.0 mph /  9.7 km/h 12.0 mph /  19.3 km/h 64 % 0.00 in /  0 mm
04:42 16.3 °F /  -8.7 °C 5.9 °F /  -14.5 °C 30.34 in /  1027.3 hPa WNW 9.0 mph /  14.5 km/h 11.5 mph /  18.5 km/h 63 % 0.00 in /  0 mm
04:44 16.3 °F /  -8.7 °C 6.2 °F /  -14.3 °C 30.34 in /  1027.3 hPa WNW 6.2 mph /  10 km/h 16.1 mph /  25.9 km/h 64 % 0.00 in /  0 mm
04:45 16.3 °F /  -8.7 °C 6.2 °F /  -14.3 °C 30.34 in /  1027.3 hPa NW 8.9 mph /  14.3 km/h 15.0 mph /  24.1 km/h 64 % 0.00 in /  0 mm
04:49 16.2 °F /  -8.8 °C 5.8 °F /  -14.6 °C 30.34 in /  1027.3 hPa NW 9.3 mph /  15 km/h 17.3 mph /  27.8 km/h 63 % 0.00 in /  0 mm
04:50 16.2 °F /  -8.8 °C 5.8 °F /  -14.6 °C 30.34 in /  1027.3 hPa WNW 9.2 mph /  14.8 km/h 17.3 mph /  27.8 km/h 63 % 0.00 in /  0 mm
04:55 16.2 °F /  -8.8 °C 5.8 °F /  -14.6 °C 30.34 in /  1027.3 hPa SW 8.1 mph /  13 km/h 12.7 mph /  20.4 km/h 63 % 0.00 in /  0 mm
04:58 16.2 °F /  -8.8 °C 6.1 °F /  -14.4 °C 30.34 in /  1027.3 hPa West 4.2 mph /  6.8 km/h 13.8 mph /  22.2 km/h 64 % 0.00 in /  0 mm
05:03 16.1 °F /  -8.8 °C 6.1 °F /  -14.4 °C 30.35 in /  1027.7 hPa West 7.9 mph /  12.7 km/h 15.0 mph /  24.1 km/h 64 % 0.00 in /  0 mm
05:04 16.1 °F /  -8.8 °C 6.1 °F /  -14.4 °C 30.35 in /  1027.7 hPa NW 4.8 mph /  7.7 km/h 15.0 mph /  24.1 km/h 64 % 0.00 in /  0 mm
05:09 16.1 °F /  -8.8 °C 6.4 °F /  -14.2 °C 30.35 in /  1027.7 hPa NW 6.4 mph /  10.3 km/h 12.7 mph /  20.4 km/h 65 % 0.00 in /  0 mm
05:12 16.1 °F /  -8.8 °C 6.1 °F /  -14.4 °C 30.35 in /  1027.7 hPa West 6.0 mph /  9.7 km/h 11.5 mph /  18.5 km/h 64 % 0.00 in /  0 mm
05:17 16.1 °F /  -8.8 °C 6.4 °F /  -14.2 °C 30.35 in /  1027.7 hPa NNW 8.2 mph /  13.2 km/h 12.7 mph /  20.4 km/h 65 % 0.00 in /  0 mm
05:18 16.1 °F /  -8.8 °C 6.4 °F /  -14.2 °C 30.35 in /  1027.7 hPa NNW 9.0 mph /  14.5 km/h 17.3 mph /  27.8 km/h 65 % 0.00 in /  0 mm
05:23 16.0 °F /  -8.9 °C 6.3 °F /  -14.3 °C 30.35 in /  1027.7 hPa WSW 5.4 mph /  8.7 km/h 12.7 mph /  20.4 km/h 65 % 0.00 in /  0 mm
05:24 16.0 °F /  -8.9 °C 6.3 °F /  -14.3 °C 30.35 in /  1027.7 hPa WSW 5.7 mph /  9.2 km/h 12.7 mph /  20.4 km/h 65 % 0.00 in /  0 mm
05:29 15.9 °F /  -8.9 °C 6.2 °F /  -14.3 °C 30.35 in /  1027.7 hPa SSW 7.6 mph /  12.2 km/h 12.7 mph /  20.4 km/h 65 % 0.00 in /  0 mm
05:34 15.8 °F /  -9 °C 6.1 °F /  -14.4 °C 30.36 in /  1028 hPa WSW 9.9 mph /  15.9 km/h 18.4 mph /  29.6 km/h 65 % 0.00 in /  0 mm
05:35 15.8 °F /  -9 °C 6.1 °F /  -14.4 °C 30.36 in /  1028 hPa WSW 9.6 mph /  15.4 km/h 18.4 mph /  29.6 km/h 65 % 0.00 in /  0 mm
05:40 15.7 °F /  -9.1 °C 6.0 °F /  -14.4 °C 30.36 in /  1028 hPa WNW 5.2 mph /  8.4 km/h 9.2 mph /  14.8 km/h 65 % 0.00 in /  0 mm
05:42 15.7 °F /  -9.1 °C 6.0 °F /  -14.4 °C 30.36 in /  1028 hPa NW 5.2 mph /  8.4 km/h 10.4 mph /  16.7 km/h 65 % 0.00 in /  0 mm
05:47 15.7 °F /  -9.1 °C 6.3 °F /  -14.3 °C 30.36 in /  1028 hPa WSW 3.0 mph /  4.8 km/h 10.4 mph /  16.7 km/h 66 % 0.00 in /  0 mm
05:48 15.6 °F /  -9.1 °C 6.3 °F /  -14.3 °C 30.36 in /  1028 hPa West 7.4 mph /  11.9 km/h 14.0 mph /  22.5 km/h 66 % 0.00 in /  0 mm
05:53 15.6 °F /  -9.1 °C 5.9 °F /  -14.5 °C 30.37 in /  1028.3 hPa WSW 7.4 mph /  11.9 km/h 14.0 mph /  22.5 km/h 65 % 0.00 in /  0 mm
05:56 15.5 °F /  -9.2 °C 5.8 °F /  -14.6 °C 30.36 in /  1028 hPa NW 1.7 mph /  2.7 km/h 6.9 mph /  11.1 km/h 65 % 0.00 in /  0 mm
06:01 15.5 °F /  -9.2 °C 5.8 °F /  -14.6 °C 30.37 in /  1028.3 hPa WNW 5.4 mph /  8.7 km/h 11.5 mph /  18.5 km/h 65 % 0.00 in /  0 mm
06:05 15.5 °F /  -9.2 °C 6.5 °F /  -14.2 °C 30.37 in /  1028.3 hPa WSW 3.8 mph /  6.1 km/h 11.5 mph /  18.5 km/h 67 % 0.00 in /  0 mm
06:10 15.4 °F /  -9.2 °C 6.4 °F /  -14.2 °C 30.37 in /  1028.3 hPa WNW 7.5 mph /  12.1 km/h 16.1 mph /  25.9 km/h 67 % 0.00 in /  0 mm
06:15 15.4 °F /  -9.2 °C 6.4 °F /  -14.2 °C 30.37 in /  1028.3 hPa NW 4.1 mph /  6.6 km/h 5.8 mph /  9.3 km/h 67 % 0.00 in /  0 mm
06:20 15.4 °F /  -9.2 °C 6.1 °F /  -14.4 °C 30.37 in /  1028.3 hPa WSW 5.9 mph /  9.5 km/h 17.3 mph /  27.8 km/h 66 % 0.00 in /  0 mm
06:25 15.4 °F /  -9.2 °C 6.1 °F /  -14.4 °C 30.37 in /  1028.3 hPa NW 6.7 mph /  10.8 km/h 18.4 mph /  29.6 km/h 66 % 0.00 in /  0 mm
06:27 15.4 °F /  -9.2 °C 6.1 °F /  -14.4 °C 30.38 in /  1028.7 hPa West 5.4 mph /  8.7 km/h 8.1 mph /  13 km/h 66 % 0.00 in /  0 mm
06:33 15.4 °F /  -9.2 °C 6.1 °F /  -14.4 °C 30.38 in /  1028.7 hPa West 7.5 mph /  12.1 km/h 13.0 mph /  20.9 km/h 66 % 0.00 in /  0 mm
06:37 15.4 °F /  -9.2 °C 6.1 °F /  -14.4 °C 30.38 in /  1028.7 hPa NW 7.5 mph /  12.1 km/h 12.7 mph /  20.4 km/h 66 % 0.00 in /  0 mm
06:39 15.4 °F /  -9.2 °C 6.1 °F /  -14.4 °C 30.38 in /  1028.7 hPa WNW 6.1 mph /  9.8 km/h 13.8 mph /  22.2 km/h 66 % 0.00 in /  0 mm
06:44 15.4 °F /  -9.2 °C 6.1 °F /  -14.4 °C 30.38 in /  1028.7 hPa West 8.4 mph /  13.5 km/h 15.0 mph /  24.1 km/h 66 % 0.00 in /  0 mm
06:49 15.5 °F /  -9.2 °C 6.2 °F /  -14.3 °C 30.38 in /  1028.7 hPa NW 5.7 mph /  9.2 km/h 10.0 mph /  16.1 km/h 66 % 0.00 in /  0 mm
06:54 15.5 °F /  -9.2 °C 6.2 °F /  -14.3 °C 30.38 in /  1028.7 hPa West 6.0 mph /  9.7 km/h 13.8 mph /  22.2 km/h 66 % 0.00 in /  0 mm
06:59 15.6 °F /  -9.1 °C 6.3 °F /  -14.3 °C 30.39 in /  1029 hPa NW 8.9 mph /  14.3 km/h 16.1 mph /  25.9 km/h 66 % 0.00 in /  0 mm
07:00 15.6 °F /  -9.1 °C 6.3 °F /  -14.3 °C 30.39 in /  1029 hPa NW 8.4 mph /  13.5 km/h 12.7 mph /  20.4 km/h 66 % 0.00 in /  0 mm
07:02 15.6 °F /  -9.1 °C 6.3 °F /  -14.3 °C 30.38 in /  1028.7 hPa NW 4.5 mph /  7.2 km/h 11.5 mph /  18.5 km/h 66 % 0.00 in /  0 mm
07:06 15.6 °F /  -9.1 °C 6.6 °F /  -14.1 °C 30.38 in /  1028.7 hPa West 7.7 mph /  12.4 km/h 12.7 mph /  20.4 km/h 67 % 0.00 in /  0 mm
07:11 15.6 °F /  -9.1 °C 6.3 °F /  -14.3 °C 30.38 in /  1028.7 hPa West 2.7 mph /  4.3 km/h 19.6 mph /  31.5 km/h 66 % 0.00 in /  0 mm
07:16 15.5 °F /  -9.2 °C 6.2 °F /  -14.3 °C 30.38 in /  1028.7 hPa WNW 6.5 mph /  10.5 km/h 11.0 mph /  17.7 km/h 66 % 0.00 in /  0 mm
07:22 15.5 °F /  -9.2 °C 6.5 °F /  -14.2 °C 30.39 in /  1029 hPa West 5.5 mph /  8.9 km/h 12.0 mph /  19.3 km/h 67 % 0.00 in /  0 mm
07:26 15.5 °F /  -9.2 °C 6.5 °F /  -14.2 °C 30.39 in /  1029 hPa WNW 3.2 mph /  5.1 km/h 7.0 mph /  11.3 km/h 67 % 0.00 in /  0 mm
07:31 15.4 °F /  -9.2 °C 6.4 °F /  -14.2 °C 30.39 in /  1029 hPa WSW 7.2 mph /  11.6 km/h 14.0 mph /  22.5 km/h 67 % 0.00 in /  0 mm
07:37 15.5 °F /  -9.2 °C 6.8 °F /  -14 °C 30.39 in /  1029 hPa WSW 6.5 mph /  10.5 km/h 10.4 mph /  16.7 km/h 68 % 0.00 in /  0 mm
07:38 15.5 °F /  -9.2 °C 6.8 °F /  -14 °C 30.40 in /  1029.3 hPa SW 4.1 mph /  6.6 km/h 10.4 mph /  16.7 km/h 68 % 0.00 in /  0 mm
07:39 15.5 °F /  -9.2 °C 6.8 °F /  -14 °C 30.40 in /  1029.3 hPa WNW 5.1 mph /  8.2 km/h 9.2 mph /  14.8 km/h 68 % 0.00 in /  0 mm
07:43 15.5 °F /  -9.2 °C 6.8 °F /  -14 °C 30.40 in /  1029.3 hPa West 2.2 mph /  3.5 km/h 7.0 mph /  11.3 km/h 68 % 0.00 in /  0 mm
07:47 15.6 °F /  -9.1 °C 6.9 °F /  -13.9 °C 30.39 in /  1029 hPa WSW 4.5 mph /  7.2 km/h 11.5 mph /  18.5 km/h 68 % 0.00 in /  0 mm
07:52 15.6 °F /  -9.1 °C 6.9 °F /  -13.9 °C 30.39 in /  1029 hPa West 2.8 mph /  4.5 km/h 5.0 mph /  8 km/h 68 % 0.00 in /  0 mm
07:57 15.6 °F /  -9.1 °C 6.9 °F /  -13.9 °C 30.39 in /  1029 hPa SW 5.5 mph /  8.9 km/h 8.0 mph /  12.9 km/h 68 % 0.00 in /  0 mm
07:59 15.6 °F /  -9.1 °C 7.2 °F /  -13.8 °C 30.39 in /  1029 hPa West 7.6 mph /  12.2 km/h 14.0 mph /  22.5 km/h 69 % 0.00 in /  0 mm
08:04 15.7 °F /  -9.1 °C 7.0 °F /  -13.9 °C 30.40 in /  1029.3 hPa NW 6.3 mph /  10.1 km/h 13.8 mph /  22.2 km/h 68 % 0.00 in /  0 mm
08:07 15.7 °F /  -9.1 °C 7.3 °F /  -13.7 °C 30.40 in /  1029.3 hPa West 6.5 mph /  10.5 km/h 11.5 mph /  18.5 km/h 69 % 0.00 in /  0 mm
08:10 15.7 °F /  -9.1 °C 7.3 °F /  -13.7 °C 30.40 in /  1029.3 hPa WNW 5.8 mph /  9.3 km/h 9.2 mph /  14.8 km/h 69 % 0.00 in /  0 mm
08:15 15.8 °F /  -9 °C 7.4 °F /  -13.7 °C 30.40 in /  1029.3 hPa West 7.0 mph /  11.3 km/h 11.5 mph /  18.5 km/h 69 % 0.00 in /  0 mm
08:20 15.8 °F /  -9 °C 7.1 °F /  -13.8 °C 30.40 in /  1029.3 hPa West 5.5 mph /  8.9 km/h 8.0 mph /  12.9 km/h 68 % 0.00 in /  0 mm
08:22 15.8 °F /  -9 °C 7.1 °F /  -13.8 °C 30.40 in /  1029.3 hPa WSW 8.4 mph /  13.5 km/h 12.0 mph /  19.3 km/h 68 % 0.00 in /  0 mm
08:27 15.9 °F /  -8.9 °C 7.2 °F /  -13.8 °C 30.40 in /  1029.3 hPa West 4.7 mph /  7.6 km/h 9.2 mph /  14.8 km/h 68 % 0.00 in /  0 mm
08:32 16.0 °F /  -8.9 °C 7.3 °F /  -13.7 °C 30.40 in /  1029.3 hPa West 7.4 mph /  11.9 km/h 9.2 mph /  14.8 km/h 68 % 0.00 in /  0 mm
08:33 16.1 °F /  -8.8 °C 7.4 °F /  -13.7 °C 30.40 in /  1029.3 hPa WSW 7.0 mph /  11.3 km/h 16.0 mph /  25.7 km/h 68 % 0.00 in /  0 mm
08:37 16.2 °F /  -8.8 °C 7.5 °F /  -13.6 °C 30.40 in /  1029.3 hPa West 6.0 mph /  9.7 km/h 11.0 mph /  17.7 km/h 68 % 0.00 in /  0 mm
08:40 16.2 °F /  -8.8 °C 7.8 °F /  -13.4 °C 30.40 in /  1029.3 hPa SW 3.9 mph /  6.3 km/h 8.0 mph /  12.9 km/h 69 % 0.00 in /  0 mm
08:45 16.3 °F /  -8.7 °C 7.6 °F /  -13.6 °C 30.40 in /  1029.3 hPa WNW 6.0 mph /  9.7 km/h 12.0 mph /  19.3 km/h 68 % 0.00 in /  0 mm
08:50 16.4 °F /  -8.7 °C 7.7 °F /  -13.5 °C 30.40 in /  1029.3 hPa WSW 7.4 mph /  11.9 km/h 11.5 mph /  18.5 km/h 68 % 0.00 in /  0 mm
08:55 16.5 °F /  -8.6 °C 7.8 °F /  -13.4 °C 30.40 in /  1029.3 hPa NW 4.8 mph /  7.7 km/h 10.0 mph /  16.1 km/h 68 % 0.00 in /  0 mm
08:58 16.6 °F /  -8.6 °C 7.9 °F /  -13.4 °C 30.40 in /  1029.3 hPa NW 6.2 mph /  10 km/h 11.5 mph /  18.5 km/h 68 % 0.00 in /  0 mm
09:03 16.7 °F /  -8.5 °C 8.0 °F /  -13.3 °C 30.40 in /  1029.3 hPa WSW 3.7 mph /  6 km/h 10.4 mph /  16.7 km/h 68 % 0.00 in /  0 mm
09:06 16.7 °F /  -8.5 °C 8.0 °F /  -13.3 °C 30.40 in /  1029.3 hPa West 6.0 mph /  9.7 km/h 12.0 mph /  19.3 km/h 68 % 0.00 in /  0 mm
09:08 16.8 °F /  -8.4 °C 8.1 °F /  -13.3 °C 30.41 in /  1029.7 hPa WSW 4.2 mph /  6.8 km/h 8.1 mph /  13 km/h 68 % 0.00 in /  0 mm
09:12 16.9 °F /  -8.4 °C 8.2 °F /  -13.2 °C 30.41 in /  1029.7 hPa WNW 7.8 mph /  12.6 km/h 11.5 mph /  18.5 km/h 68 % 0.00 in /  0 mm
09:18 17.1 °F /  -8.3 °C 8.3 °F /  -13.2 °C 30.41 in /  1029.7 hPa WNW 5.7 mph /  9.2 km/h 10.4 mph /  16.7 km/h 68 % 0.00 in /  0 mm
09:23 17.2 °F /  -8.2 °C 8.4 °F /  -13.1 °C 30.40 in /  1029.3 hPa West 5.0 mph /  8 km/h 9.2 mph /  14.8 km/h 68 % 0.00 in /  0 mm
09:25 17.3 °F /  -8.2 °C 8.5 °F /  -13.1 °C 30.40 in /  1029.3 hPa SW 2.7 mph /  4.3 km/h 5.8 mph /  9.3 km/h 68 % 0.00 in /  0 mm
09:30 17.5 °F /  -8.1 °C 8.7 °F /  -12.9 °C 30.41 in /  1029.7 hPa WNW 8.5 mph /  13.7 km/h 11.5 mph /  18.5 km/h 68 % 0.00 in /  0 mm
09:32 17.5 °F /  -8.1 °C 8.7 °F /  -12.9 °C 30.41 in /  1029.7 hPa WSW 6.0 mph /  9.7 km/h 17.0 mph /  27.4 km/h 68 % 0.00 in /  0 mm
09:34 17.6 °F /  -8 °C 8.8 °F /  -12.9 °C 30.41 in /  1029.7 hPa WNW 7.7 mph /  12.4 km/h 17.3 mph /  27.8 km/h 68 % 0.00 in /  0 mm
09:39 17.8 °F /  -7.9 °C 8.7 °F /  -12.9 °C 30.41 in /  1029.7 hPa WSW 2.7 mph /  4.3 km/h 11.5 mph /  18.5 km/h 67 % 0.00 in /  0 mm
09:42 18.0 °F /  -7.8 °C 8.9 °F /  -12.8 °C 30.41 in /  1029.7 hPa West 6.3 mph /  10.1 km/h 11.5 mph /  18.5 km/h 67 % 0.00 in /  0 mm
09:47 18.2 °F /  -7.7 °C 9.1 °F /  -12.7 °C 30.41 in /  1029.7 hPa West 2.6 mph /  4.2 km/h 4.6 mph /  7.4 km/h 67 % 0.00 in /  0 mm
09:50 18.3 °F /  -7.6 °C 9.2 °F /  -12.7 °C 30.41 in /  1029.7 hPa NW 7.2 mph /  11.6 km/h 10.4 mph /  16.7 km/h 67 % 0.00 in /  0 mm
09:51 18.3 °F /  -7.6 °C 9.2 °F /  -12.7 °C 30.41 in /  1029.7 hPa WNW 6.3 mph /  10.1 km/h 11.0 mph /  17.7 km/h 67 % 0.00 in /  0 mm
09:56 18.6 °F /  -7.4 °C 9.1 °F /  -12.7 °C 30.41 in /  1029.7 hPa WSW 8.5 mph /  13.7 km/h 12.0 mph /  19.3 km/h 66 % 0.00 in /  0 mm
10:01 18.7 °F /  -7.4 °C 9.2 °F /  -12.7 °C 30.41 in /  1029.7 hPa WSW 3.5 mph /  5.6 km/h 8.1 mph /  13 km/h 66 % 0.00 in /  0 mm
10:06 19.0 °F /  -7.2 °C 9.2 °F /  -12.7 °C 30.41 in /  1029.7 hPa SW 8.1 mph /  13 km/h 11.5 mph /  18.5 km/h 65 % 0.00 in /  0 mm
10:11 19.3 °F /  -7.1 °C 9.4 °F /  -12.6 °C 30.41 in /  1029.7 hPa WSW 5.5 mph /  8.9 km/h 13.8 mph /  22.2 km/h 65 % 0.00 in /  0 mm
10:12 19.3 °F /  -7.1 °C 9.4 °F /  -12.6 °C 30.41 in /  1029.7 hPa WNW 4.1 mph /  6.6 km/h 13.8 mph /  22.2 km/h 65 % 0.00 in /  0 mm
10:15 19.4 °F /  -7 °C 9.5 °F /  -12.5 °C 30.41 in /  1029.7 hPa WSW 2.5 mph /  4 km/h 4.6 mph /  7.4 km/h 65 % 0.00 in /  0 mm
10:20 19.7 °F /  -6.8 °C 9.8 °F /  -12.3 °C 30.40 in /  1029.3 hPa SW 3.5 mph /  5.6 km/h 9.2 mph /  14.8 km/h 65 % 0.00 in /  0 mm
10:25 20.0 °F /  -6.7 °C 10.1 °F /  -12.2 °C 30.40 in /  1029.3 hPa WNW 0.8 mph /  1.3 km/h 9.2 mph /  14.8 km/h 65 % 0.00 in /  0 mm
10:28 20.1 °F /  -6.6 °C 10.2 °F /  -12.1 °C 30.41 in /  1029.7 hPa WSW 5.3 mph /  8.5 km/h 14.0 mph /  22.5 km/h 65 % 0.00 in /  0 mm
10:33 20.3 °F /  -6.5 °C 9.7 °F /  -12.4 °C 30.40 in /  1029.3 hPa SW 5.5 mph /  8.9 km/h 14.0 mph /  22.5 km/h 63 % 0.00 in /  0 mm
10:35 20.4 °F /  -6.4 °C 9.8 °F /  -12.3 °C 30.40 in /  1029.3 hPa NW 3.9 mph /  6.3 km/h 10.4 mph /  16.7 km/h 63 % 0.00 in /  0 mm
10:40 20.5 °F /  -6.4 °C 9.5 °F /  -12.5 °C 30.40 in /  1029.3 hPa SSW 5.3 mph /  8.5 km/h 9.0 mph /  14.5 km/h 62 % 0.00 in /  0 mm
10:41 20.4 °F /  -6.4 °C 9.4 °F /  -12.6 °C 30.40 in /  1029.3 hPa West 5.5 mph /  8.9 km/h 9.2 mph /  14.8 km/h 62 % 0.00 in /  0 mm
10:46 20.5 °F /  -6.4 °C 9.9 °F /  -12.3 °C 30.40 in /  1029.3 hPa WSW 4.5 mph /  7.2 km/h 7.0 mph /  11.3 km/h 63 % 0.00 in /  0 mm
10:49 20.6 °F /  -6.3 °C 9.6 °F /  -12.4 °C 30.39 in /  1029 hPa SSW 8.0 mph /  12.9 km/h 11.5 mph /  18.5 km/h 62 % 0.00 in /  0 mm
10:54 20.6 °F /  -6.3 °C 9.6 °F /  -12.4 °C 30.39 in /  1029 hPa WSW 7.8 mph /  12.6 km/h 11.5 mph /  18.5 km/h 62 % 0.00 in /  0 mm
10:55 20.5 °F /  -6.4 °C 9.5 °F /  -12.5 °C 30.39 in /  1029 hPa WSW 8.3 mph /  13.4 km/h 11.5 mph /  18.5 km/h 62 % 0.00 in /  0 mm
11:02 20.5 °F /  -6.4 °C 10.2 °F /  -12.1 °C 30.39 in /  1029 hPa West 4.6 mph /  7.4 km/h 10.4 mph /  16.7 km/h 64 % 0.00 in /  0 mm
11:07 20.6 °F /  -6.3 °C 10.0 °F /  -12.2 °C 30.38 in /  1028.7 hPa WNW 5.9 mph /  9.5 km/h 8.1 mph /  13 km/h 63 % 0.00 in /  0 mm
11:10 20.6 °F /  -6.3 °C 10.0 °F /  -12.2 °C 30.39 in /  1029 hPa NW 5.6 mph /  9 km/h 8.1 mph /  13 km/h 63 % 0.00 in /  0 mm
11:11 20.6 °F /  -6.3 °C 10.0 °F /  -12.2 °C 30.38 in /  1028.7 hPa West 4.9 mph /  7.9 km/h 8.1 mph /  13 km/h 63 % 0.00 in /  0 mm
11:16 20.7 °F /  -6.3 °C 10.1 °F /  -12.2 °C 30.38 in /  1028.7 hPa WNW 3.1 mph /  5 km/h 4.6 mph /  7.4 km/h 63 % 0.00 in /  0 mm
11:19 20.7 °F /  -6.3 °C 10.1 °F /  -12.2 °C 30.38 in /  1028.7 hPa WNW 4.4 mph /  7.1 km/h 11.5 mph /  18.5 km/h 63 % 0.00 in /  0 mm
11:26 20.7 °F /  -6.3 °C 10.1 °F /  -12.2 °C 30.38 in /  1028.7 hPa WNW 4.2 mph /  6.8 km/h 9.2 mph /  14.8 km/h 63 % 0.00 in /  0 mm
11:31 20.7 °F /  -6.3 °C 10.1 °F /  -12.2 °C 30.37 in /  1028.3 hPa WNW 3.6 mph /  5.8 km/h 10.4 mph /  16.7 km/h 63 % 0.00 in /  0 mm
11:36 20.6 °F /  -6.3 °C 10.0 °F /  -12.2 °C 30.37 in /  1028.3 hPa West 8.1 mph /  13 km/h 16.1 mph /  25.9 km/h 63 % 0.00 in /  0 mm
11:41 20.7 °F /  -6.3 °C 10.1 °F /  -12.2 °C 30.37 in /  1028.3 hPa WNW 6.1 mph /  9.8 km/h 8.1 mph /  13 km/h 63 % 0.00 in /  0 mm
11:46 20.7 °F /  -6.3 °C 10.1 °F /  -12.2 °C 30.37 in /  1028.3 hPa WNW 7.9 mph /  12.7 km/h 17.3 mph /  27.8 km/h 63 % 0.00 in /  0 mm
11:50 20.6 °F /  -6.3 °C 9.6 °F /  -12.4 °C 30.36 in /  1028 hPa SW 4.7 mph /  7.6 km/h 11.5 mph /  18.5 km/h 62 % 0.00 in /  0 mm
11:55 20.6 °F /  -6.3 °C 10.0 °F /  -12.2 °C 30.36 in /  1028 hPa West 5.6 mph /  9 km/h 10.0 mph /  16.1 km/h 63 % 0.00 in /  0 mm
11:57 20.6 °F /  -6.3 °C 10.0 °F /  -12.2 °C 30.36 in /  1028 hPa WSW 5.6 mph /  9 km/h 10.4 mph /  16.7 km/h 63 % 0.00 in /  0 mm
12:02 20.7 °F /  -6.3 °C 10.1 °F /  -12.2 °C 30.36 in /  1028 hPa WNW 5.3 mph /  8.5 km/h 9.2 mph /  14.8 km/h 63 % 0.00 in /  0 mm
12:07 20.9 °F /  -6.2 °C 10.3 °F /  -12.1 °C 30.35 in /  1027.7 hPa WSW 4.8 mph /  7.7 km/h 9.2 mph /  14.8 km/h 63 % 0.00 in /  0 mm
12:09 20.9 °F /  -6.2 °C 10.3 °F /  -12.1 °C 30.35 in /  1027.7 hPa NW 8.8 mph /  14.2 km/h 11.5 mph /  18.5 km/h 63 % 0.00 in /  0 mm
12:14 21.2 °F /  -6 °C 10.2 °F /  -12.1 °C 30.35 in /  1027.7 hPa SW 6.0 mph /  9.7 km/h 12.7 mph /  20.4 km/h 62 % 0.00 in /  0 mm
12:19 21.5 °F /  -5.8 °C 10.5 °F /  -11.9 °C 30.35 in /  1027.7 hPa WNW 6.0 mph /  9.7 km/h 6.9 mph /  11.1 km/h 62 % 0.00 in /  0 mm
12:22 21.6 °F /  -5.8 °C 10.9 °F /  -11.7 °C 30.35 in /  1027.7 hPa West 4.2 mph /  6.8 km/h 8.1 mph /  13 km/h 63 % 0.00 in /  0 mm
12:28 22.1 °F /  -5.5 °C 11.4 °F /  -11.4 °C 30.35 in /  1027.7 hPa West 5.2 mph /  8.4 km/h 8.1 mph /  13 km/h 63 % 0.00 in /  0 mm
12:33 22.3 °F /  -5.4 °C 11.2 °F /  -11.6 °C 30.35 in /  1027.7 hPa NW 7.8 mph /  12.6 km/h 11.5 mph /  18.5 km/h 62 % 0.00 in /  0 mm
12:34 22.5 °F /  -5.3 °C 11.4 °F /  -11.4 °C 30.35 in /  1027.7 hPa West 5.8 mph /  9.3 km/h 11.5 mph /  18.5 km/h 62 % 0.00 in /  0 mm
12:36 22.6 °F /  -5.2 °C 11.2 °F /  -11.6 °C 30.35 in /  1027.7 hPa West 2.6 mph /  4.2 km/h 9.2 mph /  14.8 km/h 61 % 0.00 in /  0 mm
12:41 23.0 °F /  -5 °C 11.5 °F /  -11.4 °C 30.35 in /  1027.7 hPa WSW 8.2 mph /  13.2 km/h 15.0 mph /  24.1 km/h 61 % 0.00 in /  0 mm
12:47 23.3 °F /  -4.8 °C 11.4 °F /  -11.4 °C 30.34 in /  1027.3 hPa WNW 4.8 mph /  7.7 km/h 12.0 mph /  19.3 km/h 60 % 0.00 in /  0 mm
12:52 23.5 °F /  -4.7 °C 11.3 °F /  -11.5 °C 30.34 in /  1027.3 hPa West 6.8 mph /  10.9 km/h 10.4 mph /  16.7 km/h 59 % 0.00 in /  0 mm
12:54 23.5 °F /  -4.7 °C 11.3 °F /  -11.5 °C 30.34 in /  1027.3 hPa NW 4.8 mph /  7.7 km/h 8.1 mph /  13 km/h 59 % 0.00 in /  0 mm
12:55 23.5 °F /  -4.7 °C 11.3 °F /  -11.5 °C 30.33 in /  1027 hPa West 5.4 mph /  8.7 km/h 9.2 mph /  14.8 km/h 59 % 0.00 in /  0 mm
13:00 23.7 °F /  -4.6 °C 11.4 °F /  -11.4 °C 30.33 in /  1027 hPa WNW 3.3 mph /  5.3 km/h 9.2 mph /  14.8 km/h 59 % 0.00 in /  0 mm
13:02 23.7 °F /  -4.6 °C 11.4 °F /  -11.4 °C 30.33 in /  1027 hPa NW 5.9 mph /  9.5 km/h 13.0 mph /  20.9 km/h 59 % 0.00 in /  0 mm
13:06 23.9 °F /  -4.5 °C 11.6 °F /  -11.3 °C 30.33 in /  1027 hPa West 9.8 mph /  15.8 km/h 12.7 mph /  20.4 km/h 59 % 0.00 in /  0 mm
13:11 24.1 °F /  -4.4 °C 11.4 °F /  -11.4 °C 30.33 in /  1027 hPa SW 3.2 mph /  5.1 km/h 5.0 mph /  8 km/h 58 % 0.00 in /  0 mm
13:13 24.2 °F /  -4.3 °C 11.5 °F /  -11.4 °C 30.33 in /  1027 hPa WSW 8.4 mph /  13.5 km/h 12.7 mph /  20.4 km/h 58 % 0.00 in /  0 mm
13:23 24.6 °F /  -4.1 °C 11.9 °F /  -11.2 °C 30.33 in /  1027 hPa West 7.0 mph /  11.3 km/h 11.5 mph /  18.5 km/h 58 % 0.00 in /  0 mm
13:26 24.8 °F /  -4 °C 11.7 °F /  -11.3 °C 30.33 in /  1027 hPa WNW 5.1 mph /  8.2 km/h 6.9 mph /  11.1 km/h 57 % 0.00 in /  0 mm
13:31 25.1 °F /  -3.8 °C 12.0 °F /  -11.1 °C 30.32 in /  1026.6 hPa West 7.8 mph /  12.6 km/h 12.7 mph /  20.4 km/h 57 % 0.00 in /  0 mm
13:33 25.2 °F /  -3.8 °C 12.1 °F /  -11.1 °C 30.32 in /  1026.6 hPa NW 6.9 mph /  11.1 km/h 12.0 mph /  19.3 km/h 57 % 0.00 in /  0 mm
13:34 25.3 °F /  -3.7 °C 12.2 °F /  -11 °C 30.32 in /  1026.6 hPa NW 6.2 mph /  10 km/h 11.5 mph /  18.5 km/h 57 % 0.00 in /  0 mm
13:39 25.6 °F /  -3.6 °C 12.5 °F /  -10.8 °C 30.32 in /  1026.6 hPa West 6.7 mph /  10.8 km/h 11.5 mph /  18.5 km/h 57 % 0.00 in /  0 mm
13:40 25.6 °F /  -3.6 °C 12.1 °F /  -11.1 °C 30.32 in /  1026.6 hPa WNW 5.8 mph /  9.3 km/h 10.4 mph /  16.7 km/h 56 % 0.00 in /  0 mm
13:45 25.8 °F /  -3.4 °C 11.8 °F /  -11.2 °C 30.31 in /  1026.3 hPa WNW 2.9 mph /  4.7 km/h 6.0 mph /  9.7 km/h 55 % 0.00 in /  0 mm
13:46 25.9 °F /  -3.4 °C 12.3 °F /  -10.9 °C 30.32 in /  1026.6 hPa WNW 8.5 mph /  13.7 km/h 10.4 mph /  16.7 km/h 56 % 0.00 in /  0 mm
13:52 26.2 °F /  -3.2 °C 12.6 °F /  -10.8 °C 30.32 in /  1026.6 hPa WNW 6.9 mph /  11.1 km/h 11.5 mph /  18.5 km/h 56 % 0.00 in /  0 mm
13:53 26.2 °F /  -3.2 °C 12.2 °F /  -11 °C 30.32 in /  1026.6 hPa WNW 2.1 mph /  3.4 km/h 3.5 mph /  5.6 km/h 55 % 0.00 in /  0 mm
13:58 26.4 °F /  -3.1 °C 12.4 °F /  -10.9 °C 30.32 in /  1026.6 hPa WNW 3.3 mph /  5.3 km/h 11.5 mph /  18.5 km/h 55 % 0.00 in /  0 mm
14:00 26.4 °F /  -3.1 °C 12.4 °F /  -10.9 °C 30.32 in /  1026.6 hPa WSW 5.7 mph /  9.2 km/h 11.5 mph /  18.5 km/h 55 % 0.00 in /  0 mm
14:05 26.5 °F /  -3.1 °C 12.5 °F /  -10.8 °C 30.32 in /  1026.6 hPa West 6.3 mph /  10.1 km/h 9.2 mph /  14.8 km/h 55 % 0.00 in /  0 mm
14:10 26.6 °F /  -3 °C 12.2 °F /  -11 °C 30.32 in /  1026.6 hPa WSW 5.1 mph /  8.2 km/h 9.2 mph /  14.8 km/h 54 % 0.00 in /  0 mm
14:12 26.7 °F /  -2.9 °C 12.3 °F /  -10.9 °C 30.32 in /  1026.6 hPa West 5.1 mph /  8.2 km/h 8.1 mph /  13 km/h 54 % 0.00 in /  0 mm
14:17 26.7 °F /  -2.9 °C 11.8 °F /  -11.2 °C 30.32 in /  1026.6 hPa WNW 6.8 mph /  10.9 km/h 11.5 mph /  18.5 km/h 53 % 0.00 in /  0 mm
14:22 26.7 °F /  -2.9 °C 12.3 °F /  -10.9 °C 30.32 in /  1026.6 hPa WNW 5.4 mph /  8.7 km/h 9.2 mph /  14.8 km/h 54 % 0.00 in /  0 mm
14:28 26.7 °F /  -2.9 °C 12.3 °F /  -10.9 °C 30.31 in /  1026.3 hPa WSW 5.6 mph /  9 km/h 5.6 mph /  9 km/h 54 % 0.00 in /  0 mm
14:33 26.6 °F /  -3 °C 12.2 °F /  -11 °C 30.31 in /  1026.3 hPa SW 3.3 mph /  5.3 km/h 9.2 mph /  14.8 km/h 54 % 0.00 in /  0 mm
14:34 26.6 °F /  -3 °C 11.7 °F /  -11.3 °C 30.31 in /  1026.3 hPa WNW 4.0 mph /  6.4 km/h 8.1 mph /  13 km/h 53 % 0.00 in /  0 mm
14:35 26.6 °F /  -3 °C 12.2 °F /  -11 °C 30.31 in /  1026.3 hPa WNW 4.5 mph /  7.2 km/h 8.1 mph /  13 km/h 54 % 0.00 in /  0 mm
14:39 26.6 °F /  -3 °C 12.2 °F /  -11 °C 30.32 in /  1026.6 hPa West 5.2 mph /  8.4 km/h 9.0 mph /  14.5 km/h 54 % 0.00 in /  0 mm
14:46 26.5 °F /  -3.1 °C 12.1 °F /  -11.1 °C 30.31 in /  1026.3 hPa SW 5.4 mph /  8.7 km/h 11.5 mph /  18.5 km/h 54 % 0.00 in /  0 mm
14:51 26.5 °F /  -3.1 °C 12.5 °F /  -10.8 °C 30.31 in /  1026.3 hPa SW 5.7 mph /  9.2 km/h 11.5 mph /  18.5 km/h 55 % 0.00 in /  0 mm
14:58 26.3 °F /  -3.2 °C 12.3 °F /  -10.9 °C 30.31 in /  1026.3 hPa WSW 4.6 mph /  7.4 km/h 10.4 mph /  16.7 km/h 55 % 0.00 in /  0 mm
15:03 26.2 °F /  -3.2 °C 12.2 °F /  -11 °C 30.31 in /  1026.3 hPa West 4.6 mph /  7.4 km/h 7.0 mph /  11.3 km/h 55 % 0.00 in /  0 mm
15:08 26.1 °F /  -3.3 °C 12.1 °F /  -11.1 °C 30.31 in /  1026.3 hPa SW 2.9 mph /  4.7 km/h 8.1 mph /  13 km/h 55 % 0.00 in /  0 mm
15:14 26.0 °F /  -3.3 °C 12.0 °F /  -11.1 °C 30.31 in /  1026.3 hPa SW 2.3 mph /  3.7 km/h 5.8 mph /  9.3 km/h 55 % 0.00 in /  0 mm
15:19 26.0 °F /  -3.3 °C 12.0 °F /  -11.1 °C 30.31 in /  1026.3 hPa SW 5.8 mph /  9.3 km/h 11.5 mph /  18.5 km/h 55 % 0.00 in /  0 mm
15:20 26.0 °F /  -3.3 °C 12.0 °F /  -11.1 °C 30.31 in /  1026.3 hPa WSW 3.0 mph /  4.8 km/h 9.2 mph /  14.8 km/h 55 % 0.00 in /  0 mm
15:25 25.8 °F /  -3.4 °C 11.8 °F /  -11.2 °C 30.31 in /  1026.3 hPa SSW 5.1 mph /  8.2 km/h 8.0 mph /  12.9 km/h 55 % 0.00 in /  0 mm
15:26 25.8 °F /  -3.4 °C 11.8 °F /  -11.2 °C 30.31 in /  1026.3 hPa WSW 5.2 mph /  8.4 km/h 9.2 mph /  14.8 km/h 55 % 0.00 in /  0 mm
15:30 25.7 °F /  -3.5 °C 11.7 °F /  -11.3 °C 30.31 in /  1026.3 hPa SW 4.3 mph /  6.9 km/h 10.4 mph /  16.7 km/h 55 % 0.00 in /  0 mm
15:34 25.6 °F /  -3.6 °C 11.7 °F /  -11.3 °C 30.31 in /  1026.3 hPa SW 4.2 mph /  6.8 km/h 8.1 mph /  13 km/h 55 % 0.00 in /  0 mm
15:39 25.6 °F /  -3.6 °C 11.7 °F /  -11.3 °C 30.31 in /  1026.3 hPa WSW 3.0 mph /  4.8 km/h 6.9 mph /  11.1 km/h 55 % 0.00 in /  0 mm
15:40 25.5 °F /  -3.6 °C 11.6 °F /  -11.3 °C 30.31 in /  1026.3 hPa SSW 5.1 mph /  8.2 km/h 8.0 mph /  12.9 km/h 55 % 0.00 in /  0 mm
15:45 25.4 °F /  -3.7 °C 11.5 °F /  -11.4 °C 30.31 in /  1026.3 hPa SW 5.1 mph /  8.2 km/h 10.4 mph /  16.7 km/h 55 % 0.00 in /  0 mm
15:46 25.4 °F /  -3.7 °C 11.5 °F /  -11.4 °C 30.31 in /  1026.3 hPa West 4.7 mph /  7.6 km/h 11.5 mph /  18.5 km/h 55 % 0.00 in /  0 mm
15:52 25.3 °F /  -3.7 °C 11.4 °F /  -11.4 °C 30.31 in /  1026.3 hPa SW 5.2 mph /  8.4 km/h 8.1 mph /  13 km/h 55 % 0.00 in /  0 mm
15:56 25.3 °F /  -3.7 °C 11.8 °F /  -11.2 °C 30.31 in /  1026.3 hPa SW 3.9 mph /  6.3 km/h 6.9 mph /  11.1 km/h 56 % 0.00 in /  0 mm
16:01 25.2 °F /  -3.8 °C 11.3 °F /  -11.5 °C 30.30 in /  1026 hPa WSW 3.8 mph /  6.1 km/h 6.0 mph /  9.7 km/h 55 % 0.00 in /  0 mm
16:03 25.2 °F /  -3.8 °C 11.3 °F /  -11.5 °C 30.31 in /  1026.3 hPa SW 4.6 mph /  7.4 km/h 8.0 mph /  12.9 km/h 55 % 0.00 in /  0 mm
16:07 25.1 °F /  -3.8 °C 11.2 °F /  -11.6 °C 30.31 in /  1026.3 hPa WSW 7.3 mph /  11.7 km/h 11.5 mph /  18.5 km/h 55 % 0.00 in /  0 mm
16:12 25.1 °F /  -3.8 °C 11.2 °F /  -11.6 °C 30.31 in /  1026.3 hPa SW 4.7 mph /  7.6 km/h 6.9 mph /  11.1 km/h 55 % 0.00 in /  0 mm
16:17 25.0 °F /  -3.9 °C 11.1 °F /  -11.6 °C 30.31 in /  1026.3 hPa SSW 2.3 mph /  3.7 km/h 5.8 mph /  9.3 km/h 55 % 0.00 in /  0 mm
16:22 24.9 °F /  -3.9 °C 11.0 °F /  -11.7 °C 30.30 in /  1026 hPa SW 4.0 mph /  6.4 km/h 6.9 mph /  11.1 km/h 55 % 0.00 in /  0 mm
16:23 24.9 °F /  -3.9 °C 11.4 °F /  -11.4 °C 30.30 in /  1026 hPa SW 3.8 mph /  6.1 km/h 6.9 mph /  11.1 km/h 56 % 0.00 in /  0 mm
16:28 24.8 °F /  -4 °C 11.3 °F /  -11.5 °C 30.30 in /  1026 hPa WSW 1.2 mph /  1.9 km/h 4.6 mph /  7.4 km/h 56 % 0.00 in /  0 mm
16:30 24.8 °F /  -4 °C 11.3 °F /  -11.5 °C 30.30 in /  1026 hPa SW 2.8 mph /  4.5 km/h 3.5 mph /  5.6 km/h 56 % 0.00 in /  0 mm
16:34 24.7 °F /  -4.1 °C 11.2 °F /  -11.6 °C 30.30 in /  1026 hPa SW 1.3 mph /  2.1 km/h 3.5 mph /  5.6 km/h 56 % 0.00 in /  0 mm
16:37 24.7 °F /  -4.1 °C 11.2 °F /  -11.6 °C 30.30 in /  1026 hPa SW 2.1 mph /  3.4 km/h 5.8 mph /  9.3 km/h 56 % 0.00 in /  0 mm
16:42 24.5 °F /  -4.2 °C 11.0 °F /  -11.7 °C 30.30 in /  1026 hPa WSW 2.8 mph /  4.5 km/h 6.9 mph /  11.1 km/h 56 % 0.00 in /  0 mm
16:46 24.4 °F /  -4.2 °C 10.9 °F /  -11.7 °C 30.30 in /  1026 hPa SW 0.2 mph /  0.3 km/h 3.5 mph /  5.6 km/h 56 % 0.00 in /  0 mm
16:51 24.3 °F /  -4.3 °C 11.2 °F /  -11.6 °C 30.30 in /  1026 hPa SSW 2.5 mph /  4 km/h 4.6 mph /  7.4 km/h 57 % 0.00 in /  0 mm
16:56 24.2 °F /  -4.3 °C 11.1 °F /  -11.6 °C 30.30 in /  1026 hPa SW 0.1 mph /  0.2 km/h 1.2 mph /  1.9 km/h 57 % 0.00 in /  0 mm
16:58 24.1 °F /  -4.4 °C 11.0 °F /  -11.7 °C 30.29 in /  1025.6 hPa SSW 2.7 mph /  4.3 km/h 6.0 mph /  9.7 km/h 57 % 0.00 in /  0 mm
17:01 24.0 °F /  -4.4 °C 11.0 °F /  -11.7 °C 30.29 in /  1025.6 hPa WSW 3.9 mph /  6.3 km/h 5.0 mph /  8 km/h 57 % 0.00 in /  0 mm
17:05 23.9 °F /  -4.5 °C 10.9 °F /  -11.7 °C 30.30 in /  1026 hPa SW 2.2 mph /  3.5 km/h 5.8 mph /  9.3 km/h 57 % 0.00 in /  0 mm
17:08 23.8 °F /  -4.6 °C 11.2 °F /  -11.6 °C 30.30 in /  1026 hPa SSW 4.2 mph /  6.8 km/h 9.2 mph /  14.8 km/h 58 % 0.00 in /  0 mm
17:11 23.8 °F /  -4.6 °C 11.2 °F /  -11.6 °C 30.30 in /  1026 hPa SW 3.0 mph /  4.8 km/h 9.0 mph /  14.5 km/h 58 % 0.00 in /  0 mm
17:16 23.7 °F /  -4.6 °C 11.1 °F /  -11.6 °C 30.30 in /  1026 hPa West 0.9 mph /  1.4 km/h 4.6 mph /  7.4 km/h 58 % 0.00 in /  0 mm
17:21 23.6 °F /  -4.7 °C 11.0 °F /  -11.7 °C 30.30 in /  1026 hPa SSW 1.9 mph /  3.1 km/h 3.5 mph /  5.6 km/h 58 % 0.00 in /  0 mm
17:24 23.6 °F /  -4.7 °C 11.0 °F /  -11.7 °C 30.30 in /  1026 hPa SW 0.2 mph /  0.3 km/h 4.6 mph /  7.4 km/h 58 % 0.00 in /  0 mm
17:29 23.5 °F /  -4.7 °C 11.3 °F /  -11.5 °C 30.30 in /  1026 hPa SW 2.5 mph /  4 km/h 4.6 mph /  7.4 km/h 59 % 0.00 in /  0 mm
17:33 23.5 °F /  -4.7 °C 11.3 °F /  -11.5 °C 30.30 in /  1026 hPa South 2.4 mph /  3.9 km/h 4.6 mph /  7.4 km/h 59 % 0.00 in /  0 mm
17:38 23.4 °F /  -4.8 °C 11.2 °F /  -11.6 °C 30.30 in /  1026 hPa SSW 2.2 mph /  3.5 km/h 3.5 mph /  5.6 km/h 59 % 0.00 in /  0 mm
17:40 23.3 °F /  -4.8 °C 11.1 °F /  -11.6 °C 30.30 in /  1026 hPa SSW 1.2 mph /  1.9 km/h 3.5 mph /  5.6 km/h 59 % 0.00 in /  0 mm
17:45 23.2 °F /  -4.9 °C 11.0 °F /  -11.7 °C 30.30 in /  1026 hPa SW 1.0 mph /  1.6 km/h 3.5 mph /  5.6 km/h 59 % 0.00 in /  0 mm
17:49 23.1 °F /  -4.9 °C 10.9 °F /  -11.7 °C 30.30 in /  1026 hPa SSW 0.4 mph /  0.6 km/h 2.3 mph /  3.7 km/h 59 % 0.00 in /  0 mm
17:50 23.1 °F /  -4.9 °C 11.3 °F /  -11.5 °C 30.30 in /  1026 hPa Calm   1.2 mph /  1.9 km/h 60 % 0.00 in /  0 mm
17:54 23.0 °F /  -5 °C 11.2 °F /  -11.6 °C 30.30 in /  1026 hPa Calm   3.5 mph /  5.6 km/h 60 % 0.00 in /  0 mm
17:57 22.9 °F /  -5.1 °C 11.1 °F /  -11.6 °C 30.30 in /  1026 hPa Calm   2.3 mph /  3.7 km/h 60 % 0.00 in /  0 mm
18:01 22.8 °F /  -5.1 °C 11.0 °F /  -11.7 °C 30.30 in /  1026 hPa Calm     60 % 0.00 in /  0 mm
18:06 22.7 °F /  -5.2 °C 11.3 °F /  -11.5 °C 30.30 in /  1026 hPa SSW 4.8 mph /  7.7 km/h 9.2 mph /  14.8 km/h 61 % 0.00 in /  0 mm
18:07 22.7 °F /  -5.2 °C 11.3 °F /  -11.5 °C 30.30 in /  1026 hPa SSW 2.0 mph /  3.2 km/h 6.9 mph /  11.1 km/h 61 % 0.00 in /  0 mm
18:12 22.5 °F /  -5.3 °C 11.1 °F /  -11.6 °C 30.30 in /  1026 hPa SW 1.3 mph /  2.1 km/h 3.5 mph /  5.6 km/h 61 % 0.00 in /  0 mm
18:16 22.4 °F /  -5.3 °C 11.0 °F /  -11.7 °C 30.30 in /  1026 hPa WSW 1.0 mph /  1.6 km/h 4.0 mph /  6.4 km/h 61 % 0.00 in /  0 mm
18:21 22.4 °F /  -5.3 °C 11.3 °F /  -11.5 °C 30.30 in /  1026 hPa WSW 1.5 mph /  2.4 km/h 6.9 mph /  11.1 km/h 62 % 0.00 in /  0 mm
18:22 22.4 °F /  -5.3 °C 11.3 °F /  -11.5 °C 30.30 in /  1026 hPa SSW 2.2 mph /  3.5 km/h 6.9 mph /  11.1 km/h 62 % 0.00 in /  0 mm
18:23 22.4 °F /  -5.3 °C 11.3 °F /  -11.5 °C 30.30 in /  1026 hPa WSW 3.8 mph /  6.1 km/h 6.9 mph /  11.1 km/h 62 % 0.00 in /  0 mm
18:28 22.4 °F /  -5.3 °C 11.3 °F /  -11.5 °C 30.30 in /  1026 hPa SW 2.2 mph /  3.5 km/h 6.9 mph /  11.1 km/h 62 % 0.00 in /  0 mm
18:30 22.4 °F /  -5.3 °C 11.3 °F /  -11.5 °C 30.30 in /  1026 hPa SSW 4.8 mph /  7.7 km/h 6.9 mph /  11.1 km/h 62 % 0.00 in /  0 mm
18:31 22.3 °F /  -5.4 °C 11.2 °F /  -11.6 °C 30.30 in /  1026 hPa SSW 4.5 mph /  7.2 km/h 11.5 mph /  18.5 km/h 62 % 0.00 in /  0 mm
18:36 22.4 °F /  -5.3 °C 11.7 °F /  -11.3 °C 30.30 in /  1026 hPa SW 5.0 mph /  8 km/h 10.0 mph /  16.1 km/h 63 % 0.00 in /  0 mm
18:41 22.4 °F /  -5.3 °C 11.3 °F /  -11.5 °C 30.30 in /  1026 hPa SW 3.8 mph /  6.1 km/h 7.0 mph /  11.3 km/h 62 % 0.00 in /  0 mm
18:46 22.5 °F /  -5.3 °C 11.4 °F /  -11.4 °C 30.30 in /  1026 hPa SW 6.1 mph /  9.8 km/h 11.5 mph /  18.5 km/h 62 % 0.00 in /  0 mm
18:48 22.5 °F /  -5.3 °C 11.4 °F /  -11.4 °C 30.30 in /  1026 hPa SW 3.3 mph /  5.3 km/h 10.4 mph /  16.7 km/h 62 % 0.00 in /  0 mm
18:50 22.5 °F /  -5.3 °C 11.8 °F /  -11.2 °C 30.30 in /  1026 hPa South 1.2 mph /  1.9 km/h 4.0 mph /  6.4 km/h 63 % 0.00 in /  0 mm
18:55 22.5 °F /  -5.3 °C 11.4 °F /  -11.4 °C 30.30 in /  1026 hPa SW 5.0 mph /  8 km/h 10.4 mph /  16.7 km/h 62 % 0.00 in /  0 mm
19:00 22.5 °F /  -5.3 °C 11.8 °F /  -11.2 °C 30.30 in /  1026 hPa WSW 4.7 mph /  7.6 km/h 7.0 mph /  11.3 km/h 63 % 0.00 in /  0 mm
19:05 22.6 °F /  -5.2 °C 11.5 °F /  -11.4 °C 30.30 in /  1026 hPa WSW 2.7 mph /  4.3 km/h 8.0 mph /  12.9 km/h 62 % 0.00 in /  0 mm
19:06 22.5 °F /  -5.3 °C 11.4 °F /  -11.4 °C 30.30 in /  1026 hPa SSW 3.6 mph /  5.8 km/h 10.0 mph /  16.1 km/h 62 % 0.00 in /  0 mm
19:11 22.5 °F /  -5.3 °C 11.4 °F /  -11.4 °C 30.30 in /  1026 hPa WSW 3.3 mph /  5.3 km/h 4.6 mph /  7.4 km/h 62 % 0.00 in /  0 mm
19:17 22.5 °F /  -5.3 °C 11.4 °F /  -11.4 °C 30.30 in /  1026 hPa SSW 5.5 mph /  8.9 km/h 9.0 mph /  14.5 km/h 62 % 0.00 in /  0 mm
19:20 22.5 °F /  -5.3 °C 11.4 °F /  -11.4 °C 30.30 in /  1026 hPa South 3.1 mph /  5 km/h 10.4 mph /  16.7 km/h 62 % 0.00 in /  0 mm
19:21 22.5 °F /  -5.3 °C 11.4 °F /  -11.4 °C 30.30 in /  1026 hPa West 1.4 mph /  2.3 km/h 4.6 mph /  7.4 km/h 62 % 0.00 in /  0 mm
19:27 22.5 °F /  -5.3 °C 11.4 °F /  -11.4 °C 30.30 in /  1026 hPa SW 4.6 mph /  7.4 km/h 5.8 mph /  9.3 km/h 62 % 0.00 in /  0 mm
19:29 22.4 °F /  -5.3 °C 11.3 °F /  -11.5 °C 30.30 in /  1026 hPa SW 4.6 mph /  7.4 km/h 8.1 mph /  13 km/h 62 % 0.00 in /  0 mm
19:30 22.4 °F /  -5.3 °C 11.3 °F /  -11.5 °C 30.30 in /  1026 hPa SW 5.4 mph /  8.7 km/h 9.2 mph /  14.8 km/h 62 % 0.00 in /  0 mm
19:34 22.4 °F /  -5.3 °C 11.3 °F /  -11.5 °C 30.30 in /  1026 hPa WSW 4.4 mph /  7.1 km/h 12.7 mph /  20.4 km/h 62 % 0.00 in /  0 mm
19:39 22.4 °F /  -5.3 °C 11.3 °F /  -11.5 °C 30.30 in /  1026 hPa SW 3.6 mph /  5.8 km/h 8.0 mph /  12.9 km/h 62 % 0.00 in /  0 mm
19:44 22.4 °F /  -5.3 °C 11.7 °F /  -11.3 °C 30.30 in /  1026 hPa SW 3.8 mph /  6.1 km/h 5.8 mph /  9.3 km/h 63 % 0.00 in /  0 mm
19:46 22.3 °F /  -5.4 °C 11.6 °F /  -11.3 °C 30.30 in /  1026 hPa SW 3.7 mph /  6 km/h 6.9 mph /  11.1 km/h 63 % 0.00 in /  0 mm
19:51 22.3 °F /  -5.4 °C 11.6 °F /  -11.3 °C 30.30 in /  1026 hPa SSW 1.5 mph /  2.4 km/h 4.6 mph /  7.4 km/h 63 % 0.00 in /  0 mm
19:53 22.2 °F /  -5.4 °C 11.5 °F /  -11.4 °C 30.30 in /  1026 hPa WSW 2.3 mph /  3.7 km/h 3.5 mph /  5.6 km/h 63 % 0.00 in /  0 mm
19:57 22.2 °F /  -5.4 °C 11.1 °F /  -11.6 °C 30.30 in /  1026 hPa SW 3.1 mph /  5 km/h 5.8 mph /  9.3 km/h 62 % 0.00 in /  0 mm
20:01 22.1 °F /  -5.5 °C 11.1 °F /  -11.6 °C 30.30 in /  1026 hPa SSW 0.5 mph /  0.8 km/h 3.5 mph /  5.6 km/h 62 % 0.00 in /  0 mm
20:06 22.0 °F /  -5.6 °C 11.0 °F /  -11.7 °C 30.30 in /  1026 hPa SW 2.8 mph /  4.5 km/h 4.6 mph /  7.4 km/h 62 % 0.00 in /  0 mm
20:09 22.0 °F /  -5.6 °C 11.0 °F /  -11.7 °C 30.30 in /  1026 hPa SW 1.2 mph /  1.9 km/h 3.5 mph /  5.6 km/h 62 % 0.00 in /  0 mm
20:14 21.9 °F /  -5.6 °C 11.2 °F /  -11.6 °C 30.30 in /  1026 hPa SSW 1.5 mph /  2.4 km/h 4.0 mph /  6.4 km/h 63 % 0.00 in /  0 mm
20:15 21.9 °F /  -5.6 °C 11.2 °F /  -11.6 °C 30.30 in /  1026 hPa South 2.2 mph /  3.5 km/h 3.5 mph /  5.6 km/h 63 % 0.00 in /  0 mm
20:20 21.8 °F /  -5.7 °C 11.1 °F /  -11.6 °C 30.30 in /  1026 hPa SW 2.8 mph /  4.5 km/h 5.8 mph /  9.3 km/h 63 % 0.00 in /  0 mm
20:28 21.5 °F /  -5.8 °C 10.8 °F /  -11.8 °C 30.30 in /  1026 hPa SW 2.9 mph /  4.7 km/h 6.9 mph /  11.1 km/h 63 % 0.00 in /  0 mm
20:34 21.4 °F /  -5.9 °C 11.1 °F /  -11.6 °C 30.31 in /  1026.3 hPa WSW 5.7 mph /  9.2 km/h 10.0 mph /  16.1 km/h 64 % 0.00 in /  0 mm
20:35 21.4 °F /  -5.9 °C 11.1 °F /  -11.6 °C 30.30 in /  1026 hPa SW 6.2 mph /  10 km/h 9.2 mph /  14.8 km/h 64 % 0.00 in /  0 mm
20:40 21.3 °F /  -5.9 °C 11.0 °F /  -11.7 °C 30.31 in /  1026.3 hPa SSW 5.8 mph /  9.3 km/h 8.0 mph /  12.9 km/h 64 % 0.00 in /  0 mm
20:45 21.3 °F /  -5.9 °C 11.0 °F /  -11.7 °C 30.31 in /  1026.3 hPa SW 6.0 mph /  9.7 km/h 9.0 mph /  14.5 km/h 64 % 0.00 in /  0 mm
20:50 21.3 °F /  -5.9 °C 10.7 °F /  -11.8 °C 30.31 in /  1026.3 hPa WSW 5.4 mph /  8.7 km/h 7.0 mph /  11.3 km/h 63 % 0.00 in /  0 mm
20:51 21.3 °F /  -5.9 °C 10.7 °F /  -11.8 °C 30.30 in /  1026 hPa WSW 5.9 mph /  9.5 km/h 9.2 mph /  14.8 km/h 63 % 0.00 in /  0 mm
20:52 21.3 °F /  -5.9 °C 10.7 °F /  -11.8 °C 30.31 in /  1026.3 hPa WSW 4.7 mph /  7.6 km/h 9.0 mph /  14.5 km/h 63 % 0.00 in /  0 mm
20:57 21.3 °F /  -5.9 °C 10.7 °F /  -11.8 °C 30.31 in /  1026.3 hPa WSW 6.9 mph /  11.1 km/h 16.1 mph /  25.9 km/h 63 % 0.00 in /  0 mm
21:02 21.3 °F /  -5.9 °C 10.7 °F /  -11.8 °C 30.31 in /  1026.3 hPa SW 4.4 mph /  7.1 km/h 11.5 mph /  18.5 km/h 63 % 0.00 in /  0 mm
21:03 21.3 °F /  -5.9 °C 10.3 °F /  -12.1 °C 30.31 in /  1026.3 hPa SSW 6.1 mph /  9.8 km/h 8.1 mph /  13 km/h 62 % 0.00 in /  0 mm
21:08 21.3 °F /  -5.9 °C 10.3 °F /  -12.1 °C 30.31 in /  1026.3 hPa South 4.6 mph /  7.4 km/h 8.1 mph /  13 km/h 62 % 0.00 in /  0 mm
21:10 21.3 °F /  -5.9 °C 10.3 °F /  -12.1 °C 30.31 in /  1026.3 hPa SW 6.4 mph /  10.3 km/h 8.1 mph /  13 km/h 62 % 0.00 in /  0 mm
21:16 21.3 °F /  -5.9 °C 10.7 °F /  -11.8 °C 30.31 in /  1026.3 hPa WSW 6.0 mph /  9.7 km/h 12.0 mph /  19.3 km/h 63 % 0.00 in /  0 mm
21:17 21.3 °F /  -5.9 °C 10.7 °F /  -11.8 °C 30.31 in /  1026.3 hPa SSW 4.8 mph /  7.7 km/h 11.5 mph /  18.5 km/h 63 % 0.00 in /  0 mm
21:19 21.3 °F /  -5.9 °C 10.7 °F /  -11.8 °C 30.31 in /  1026.3 hPa WSW 5.5 mph /  8.9 km/h 12.0 mph /  19.3 km/h 63 % 0.00 in /  0 mm
21:23 21.2 °F /  -6 °C 10.6 °F /  -11.9 °C 30.31 in /  1026.3 hPa SW 2.2 mph /  3.5 km/h 6.9 mph /  11.1 km/h 63 % 0.00 in /  0 mm
21:24 21.2 °F /  -6 °C 10.6 °F /  -11.9 °C 30.31 in /  1026.3 hPa SW 2.8 mph /  4.5 km/h 4.0 mph /  6.4 km/h 63 % 0.00 in /  0 mm
21:29 21.1 °F /  -6.1 °C 10.5 °F /  -11.9 °C 30.32 in /  1026.6 hPa SSW 5.2 mph /  8.4 km/h 9.2 mph /  14.8 km/h 63 % 0.00 in /  0 mm
21:31 21.1 °F /  -6.1 °C 10.5 °F /  -11.9 °C 30.32 in /  1026.6 hPa WSW 4.1 mph /  6.6 km/h 6.9 mph /  11.1 km/h 63 % 0.00 in /  0 mm
21:32 21.1 °F /  -6.1 °C 10.5 °F /  -11.9 °C 30.32 in /  1026.6 hPa SSW 3.6 mph /  5.8 km/h 6.9 mph /  11.1 km/h 63 % 0.00 in /  0 mm
21:37 21.0 °F /  -6.1 °C 10.4 °F /  -12 °C 30.32 in /  1026.6 hPa SSW 2.0 mph /  3.2 km/h 3.5 mph /  5.6 km/h 63 % 0.00 in /  0 mm
21:41 20.9 °F /  -6.2 °C 10.3 °F /  -12.1 °C 30.32 in /  1026.6 hPa SSW 3.0 mph /  4.8 km/h 6.9 mph /  11.1 km/h 63 % 0.00 in /  0 mm
21:43 20.9 °F /  -6.2 °C 10.3 °F /  -12.1 °C 30.32 in /  1026.6 hPa WSW 3.4 mph /  5.5 km/h 6.0 mph /  9.7 km/h 63 % 0.00 in /  0 mm
21:48 20.7 °F /  -6.3 °C 10.1 °F /  -12.2 °C 30.32 in /  1026.6 hPa SW 4.1 mph /  6.6 km/h 6.9 mph /  11.1 km/h 63 % 0.00 in /  0 mm
21:49 20.7 °F /  -6.3 °C 10.1 °F /  -12.2 °C 30.32 in /  1026.6 hPa SSW 4.4 mph /  7.1 km/h 7.0 mph /  11.3 km/h 63 % 0.00 in /  0 mm
21:54 20.7 °F /  -6.3 °C 9.7 °F /  -12.4 °C 30.32 in /  1026.6 hPa SSE 2.1 mph /  3.4 km/h 9.2 mph /  14.8 km/h 62 % 0.00 in /  0 mm
21:55 20.7 °F /  -6.3 °C 9.7 °F /  -12.4 °C 30.32 in /  1026.6 hPa WSW 3.0 mph /  4.8 km/h 9.2 mph /  14.8 km/h 62 % 0.00 in /  0 mm
22:00 20.7 °F /  -6.3 °C 9.7 °F /  -12.4 °C 30.32 in /  1026.6 hPa SW 5.3 mph /  8.5 km/h 9.2 mph /  14.8 km/h 62 % 0.00 in /  0 mm
22:03 20.7 °F /  -6.3 °C 9.7 °F /  -12.4 °C 30.32 in /  1026.6 hPa SSW 1.3 mph /  2.1 km/h 3.5 mph /  5.6 km/h 62 % 0.00 in /  0 mm
22:06 20.7 °F /  -6.3 °C 9.7 °F /  -12.4 °C 30.32 in /  1026.6 hPa SW 3.6 mph /  5.8 km/h 4.0 mph /  6.4 km/h 62 % 0.00 in /  0 mm
22:12 20.6 °F /  -6.3 °C 9.6 °F /  -12.4 °C 30.32 in /  1026.6 hPa WSW 1.8 mph /  2.9 km/h 5.8 mph /  9.3 km/h 62 % 0.00 in /  0 mm
22:15 20.6 °F /  -6.3 °C 9.6 °F /  -12.4 °C 30.32 in /  1026.6 hPa SSW 2.4 mph /  3.9 km/h 4.6 mph /  7.4 km/h 62 % 0.00 in /  0 mm
22:20 20.4 °F /  -6.4 °C 9.8 °F /  -12.3 °C 30.32 in /  1026.6 hPa SW 1.1 mph /  1.8 km/h 2.3 mph /  3.7 km/h 63 % 0.00 in /  0 mm
22:25 20.3 °F /  -6.5 °C 9.7 °F /  -12.4 °C 30.32 in /  1026.6 hPa SW 3.4 mph /  5.5 km/h 5.8 mph /  9.3 km/h 63 % 0.00 in /  0 mm
22:30 20.1 °F /  -6.6 °C 9.5 °F /  -12.5 °C 30.32 in /  1026.6 hPa SSW 4.3 mph /  6.9 km/h 6.9 mph /  11.1 km/h 63 % 0.00 in /  0 mm
22:31 20.1 °F /  -6.6 °C 9.5 °F /  -12.5 °C 30.32 in /  1026.6 hPa SSW 4.0 mph /  6.4 km/h 6.9 mph /  11.1 km/h 63 % 0.00 in /  0 mm
22:36 19.9 °F /  -6.7 °C 9.4 °F /  -12.6 °C 30.32 in /  1026.6 hPa SSW 5.0 mph /  8 km/h 7.0 mph /  11.3 km/h 63 % 0.00 in /  0 mm
22:40 19.8 °F /  -6.8 °C 9.2 °F /  -12.7 °C 30.32 in /  1026.6 hPa SSW 3.0 mph /  4.8 km/h 7.0 mph /  11.3 km/h 63 % 0.00 in /  0 mm
22:44 19.7 °F /  -6.8 °C 9.1 °F /  -12.7 °C 30.32 in /  1026.6 hPa SSW 4.0 mph /  6.4 km/h 4.6 mph /  7.4 km/h 63 % 0.00 in /  0 mm
22:49 19.6 °F /  -6.9 °C 9.4 °F /  -12.6 °C 30.32 in /  1026.6 hPa SSW 3.5 mph /  5.6 km/h 5.0 mph /  8 km/h 64 % 0.00 in /  0 mm
22:51 19.6 °F /  -6.9 °C 9.4 °F /  -12.6 °C 30.32 in /  1026.6 hPa SW 3.3 mph /  5.3 km/h 5.8 mph /  9.3 km/h 64 % 0.00 in /  0 mm
22:56 19.5 °F /  -6.9 °C 9.3 °F /  -12.6 °C 30.32 in /  1026.6 hPa SW 4.3 mph /  6.9 km/h 10.4 mph /  16.7 km/h 64 % 0.00 in /  0 mm
22:57 19.4 °F /  -7 °C 9.2 °F /  -12.7 °C 30.33 in /  1027 hPa WSW 4.5 mph /  7.2 km/h 11.5 mph /  18.5 km/h 64 % 0.00 in /  0 mm
22:58 19.4 °F /  -7 °C 9.2 °F /  -12.7 °C 30.32 in /  1026.6 hPa WSW 2.3 mph /  3.7 km/h 5.8 mph /  9.3 km/h 64 % 0.00 in /  0 mm
23:00 19.4 °F /  -7 °C 9.2 °F /  -12.7 °C 30.32 in /  1026.6 hPa SW 1.4 mph /  2.3 km/h 4.0 mph /  6.4 km/h 64 % 0.00 in /  0 mm
23:05 19.3 °F /  -7.1 °C 9.1 °F /  -12.7 °C 30.33 in /  1027 hPa SSW 6.6 mph /  10.6 km/h 11.5 mph /  18.5 km/h 64 % 0.00 in /  0 mm
23:11 19.2 °F /  -7.1 °C 9.0 °F /  -12.8 °C 30.32 in /  1026.6 hPa SSW 3.0 mph /  4.8 km/h 7.0 mph /  11.3 km/h 64 % 0.00 in /  0 mm
23:15 19.2 °F /  -7.1 °C 9.0 °F /  -12.8 °C 30.33 in /  1027 hPa SW 2.9 mph /  4.7 km/h 6.9 mph /  11.1 km/h 64 % 0.00 in /  0 mm
23:20 19.2 °F /  -7.1 °C 8.7 °F /  -12.9 °C 30.33 in /  1027 hPa WSW 2.7 mph /  4.3 km/h 4.6 mph /  7.4 km/h 63 % 0.00 in /  0 mm
23:25 19.2 °F /  -7.1 °C 8.7 °F /  -12.9 °C 30.33 in /  1027 hPa SW 4.2 mph /  6.8 km/h 7.0 mph /  11.3 km/h 63 % 0.00 in /  0 mm
23:30 19.3 °F /  -7.1 °C 8.8 °F /  -12.9 °C 30.33 in /  1027 hPa SSW 4.9 mph /  7.9 km/h 7.0 mph /  11.3 km/h 63 % 0.00 in /  0 mm
23:31 19.3 °F /  -7.1 °C 8.8 °F /  -12.9 °C 30.33 in /  1027 hPa SSW 5.2 mph /  8.4 km/h 6.9 mph /  11.1 km/h 63 % 0.00 in /  0 mm
23:36 19.3 °F /  -7.1 °C 8.8 °F /  -12.9 °C 30.33 in /  1027 hPa SW 4.6 mph /  7.4 km/h 6.9 mph /  11.1 km/h 63 % 0.00 in /  0 mm
23:39 19.3 °F /  -7.1 °C 8.8 °F /  -12.9 °C 30.33 in /  1027 hPa SW 3.2 mph /  5.1 km/h 4.6 mph /  7.4 km/h 63 % 0.00 in /  0 mm
23:41 19.3 °F /  -7.1 °C 8.8 °F /  -12.9 °C 30.33 in /  1027 hPa SW 3.6 mph /  5.8 km/h 7.0 mph /  11.3 km/h 63 % 0.00 in /  0 mm
23:45 19.3 °F /  -7.1 °C 8.8 °F /  -12.9 °C 30.33 in /  1027 hPa SSW 5.4 mph /  8.7 km/h 8.1 mph /  13 km/h 63 % 0.00 in /  0 mm
23:50 19.3 °F /  -7.1 °C 8.4 °F /  -13.1 °C 30.32 in /  1026.6 hPa SW 4.5 mph /  7.2 km/h 6.9 mph /  11.1 km/h 62 % 0.00 in /  0 mm
23:54 19.4 °F /  -7 °C 8.5 °F /  -13.1 °C 30.32 in /  1026.6 hPa WSW 4.7 mph /  7.6 km/h 11.5 mph /  18.5 km/h 62 % 0.00 in /  0 mm
23:57 19.4 °F /  -7 °C 8.5 °F /  -13.1 °C 30.32 in /  1026.6 hPa West 5.1 mph /  8.2 km/h 8.1 mph /  13 km/h 62 % 0.00 in /  0 mm
Crab Meadow Weather
Compliments of Weather Underground - 3.5 mb

Script developed by  Jim McMurry - jmcmurry@mwt.net Adapted for the template by  Wim van der Kuil - Leuven-Template.eu

Hurricanes: Hurricanes are classified into five categories, based on their wind speeds and potential to cause damage. * Category One -- Winds 74-95 miles per hour * Category Two -- Winds 96-110 miles per hour * Category Three -- Winds 111-130 miles per hour * Category Four -- Winds 131-155 miles per hour * Category Five -- Winds greater than 155 miles per hour.